sensor_id;sensor_type;location;lat;lon;timestamp;pressure;altitude;pressure_sealevel;temperature;humidity
32324;BME280;25666;44.350;9.222;2023-04-21T00:00:02;101277.69;;;14.00;100.00
32324;BME280;25666;44.350;9.222;2023-04-21T00:02:32;101275.59;;;13.97;100.00
32324;BME280;25666;44.350;9.222;2023-04-21T00:04:58;101272.97;;;13.88;100.00
32324;BME280;25666;44.350;9.222;2023-04-21T00:07:24;101269.44;;;13.91;100.00
32324;BME280;25666;44.350;9.222;2023-04-21T00:09:49;101264.41;;;13.97;100.00
32324;BME280;25666;44.350;9.222;2023-04-21T00:12:15;101273.97;;;13.95;100.00
32324;BME280;25666;44.350;9.222;2023-04-21T00:14:41;101279.91;;;13.94;100.00
32324;BME280;25666;44.350;9.222;2023-04-21T00:17:06;101277.41;;;13.89;100.00
32324;BME280;25666;44.350;9.222;2023-04-21T00:19:31;101267.34;;;13.88;100.00
32324;BME280;25666;44.350;9.222;2023-04-21T00:21:58;101278.66;;;13.91;100.00
32324;BME280;25666;44.350;9.222;2023-04-21T00:24:25;101265.03;;;13.90;100.00
32324;BME280;25666;44.350;9.222;2023-04-21T00:26:51;101266.28;;;13.92;100.00
32324;BME280;25666;44.350;9.222;2023-04-21T00:29:17;101269.19;;;13.96;100.00
32324;BME280;25666;44.350;9.222;2023-04-21T00:31:42;101269.53;;;13.94;100.00
32324;BME280;25666;44.350;9.222;2023-04-21T00:34:08;101265.91;;;13.94;100.00
32324;BME280;25666;44.350;9.222;2023-04-21T00:36:33;101274.69;;;13.92;100.00
32324;BME280;25666;44.350;9.222;2023-04-21T00:38:59;101276.56;;;13.73;100.00
32324;BME280;25666;44.350;9.222;2023-04-21T00:41:27;101271.59;;;13.82;100.00
32324;BME280;25666;44.350;9.222;2023-04-21T00:44:07;101280.91;;;13.86;100.00
32324;BME280;25666;44.350;9.222;2023-04-21T00:46:33;101272.88;;;13.84;100.00
32324;BME280;25666;44.350;9.222;2023-04-21T00:49:03;101268.28;;;13.92;100.00
32324;BME280;25666;44.350;9.222;2023-04-21T00:51:32;101267.84;;;13.90;100.00
32324;BME280;25666;44.350;9.222;2023-04-21T00:53:59;101268.66;;;13.90;100.00
32324;BME280;25666;44.350;9.222;2023-04-21T00:56:27;101270.34;;;13.79;100.00
32324;BME280;25666;44.350;9.222;2023-04-21T00:58:53;101271.44;;;13.75;100.00
32324;BME280;25666;44.350;9.222;2023-04-21T01:01:23;101271.56;;;13.66;100.00
32324;BME280;25666;44.350;9.222;2023-04-21T01:03:50;101278.81;;;13.67;100.00
32324;BME280;25666;44.350;9.222;2023-04-21T01:06:16;101277.34;;;13.58;100.00
32324;BME280;25666;44.350;9.222;2023-04-21T01:08:46;101275.09;;;13.63;100.00
32324;BME280;25666;44.350;9.222;2023-04-21T01:11:14;101277.06;;;13.63;100.00
32324;BME280;25666;44.350;9.222;2023-04-21T01:13:40;101276.28;;;13.62;100.00
32324;BME280;25666;44.350;9.222;2023-04-21T01:16:06;101277.16;;;13.66;100.00
32324;BME280;25666;44.350;9.222;2023-04-21T01:18:34;101276.31;;;13.78;100.00
32324;BME280;25666;44.350;9.222;2023-04-21T01:21:02;101275.38;;;13.58;100.00
32324;BME280;25666;44.350;9.222;2023-04-21T01:23:28;101276.53;;;13.57;100.00
32324;BME280;25666;44.350;9.222;2023-04-21T01:25:54;101275.38;;;13.58;100.00
32324;BME280;25666;44.350;9.222;2023-04-21T01:28:23;101278.16;;;13.58;100.00
32324;BME280;25666;44.350;9.222;2023-04-21T01:30:50;101280.84;;;13.55;100.00
32324;BME280;25666;44.350;9.222;2023-04-21T01:33:16;101283.69;;;13.70;100.00
32324;BME280;25666;44.350;9.222;2023-04-21T01:35:42;101291.81;;;13.75;100.00
32324;BME280;25666;44.350;9.222;2023-04-21T01:38:08;101287.84;;;13.76;100.00
32324;BME280;25666;44.350;9.222;2023-04-21T01:40:34;101290.75;;;13.80;100.00
32324;BME280;25666;44.350;9.222;2023-04-21T01:43:00;101291.38;;;13.73;100.00
32324;BME280;25666;44.350;9.222;2023-04-21T01:45:25;101285.78;;;13.73;100.00
32324;BME280;25666;44.350;9.222;2023-04-21T01:47:51;101291.88;;;13.63;100.00
32324;BME280;25666;44.350;9.222;2023-04-21T01:50:16;101282.59;;;13.59;100.00
32324;BME280;25666;44.350;9.222;2023-04-21T01:52:42;101292.78;;;13.67;100.00
32324;BME280;25666;44.350;9.222;2023-04-21T01:55:08;101288.75;;;13.65;100.00
32324;BME280;25666;44.350;9.222;2023-04-21T01:57:34;101284.84;;;13.69;100.00
32324;BME280;25666;44.350;9.222;2023-04-21T02:00:00;101283.06;;;13.77;100.00
32324;BME280;25666;44.350;9.222;2023-04-21T02:02:26;101287.13;;;13.79;100.00
32324;BME280;25666;44.350;9.222;2023-04-21T02:04:52;101289.31;;;13.86;100.00
32324;BME280;25666;44.350;9.222;2023-04-21T02:07:17;101285.06;;;13.92;100.00
32324;BME280;25666;44.350;9.222;2023-04-21T02:09:43;101291.47;;;13.92;100.00
32324;BME280;25666;44.350;9.222;2023-04-21T02:12:08;101287.78;;;13.88;100.00
32324;BME280;25666;44.350;9.222;2023-04-21T02:14:36;101280.19;;;13.89;100.00
32324;BME280;25666;44.350;9.222;2023-04-21T02:17:01;101277.03;;;13.90;100.00
32324;BME280;25666;44.350;9.222;2023-04-21T02:19:28;101273.97;;;13.95;100.00
32324;BME280;25666;44.350;9.222;2023-04-21T02:21:53;101270.78;;;13.97;100.00
32324;BME280;25666;44.350;9.222;2023-04-21T02:24:20;101272.34;;;13.94;100.00
32324;BME280;25666;44.350;9.222;2023-04-21T02:26:46;101265.13;;;13.93;100.00
32324;BME280;25666;44.350;9.222;2023-04-21T02:29:11;101261.13;;;13.94;100.00
32324;BME280;25666;44.350;9.222;2023-04-21T02:31:37;101264.41;;;13.97;100.00
32324;BME280;25666;44.350;9.222;2023-04-21T02:34:03;101265.13;;;13.93;100.00
32324;BME280;25666;44.350;9.222;2023-04-21T02:36:29;101262.13;;;13.86;100.00
32324;BME280;25666;44.350;9.222;2023-04-21T02:38:56;101262.38;;;13.81;100.00
32324;BME280;25666;44.350;9.222;2023-04-21T02:41:22;101260.03;;;13.68;100.00
32324;BME280;25666;44.350;9.222;2023-04-21T02:43:48;101266.31;;;13.49;100.00
32324;BME280;25666;44.350;9.222;2023-04-21T02:46:13;101268.31;;;13.49;100.00
32324;BME280;25666;44.350;9.222;2023-04-21T02:48:39;101258.84;;;13.53;100.00
32324;BME280;25666;44.350;9.222;2023-04-21T02:51:10;101267.59;;;13.52;100.00
32324;BME280;25666;44.350;9.222;2023-04-21T02:53:36;101270.91;;;13.41;100.00
32324;BME280;25666;44.350;9.222;2023-04-21T02:56:01;101269.28;;;13.40;100.00
32324;BME280;25666;44.350;9.222;2023-04-21T02:58:29;101268.38;;;13.36;100.00
32324;BME280;25666;44.350;9.222;2023-04-21T03:00:55;101273.44;;;13.47;100.00
32324;BME280;25666;44.350;9.222;2023-04-21T03:03:21;101270.19;;;13.45;100.00
32324;BME280;25666;44.350;9.222;2023-04-21T03:05:47;101271.16;;;13.36;100.00
32324;BME280;25666;44.350;9.222;2023-04-21T03:08:13;101272.97;;;13.45;100.00
32324;BME280;25666;44.350;9.222;2023-04-21T03:10:38;101273.34;;;13.43;100.00
32324;BME280;25666;44.350;9.222;2023-04-21T03:13:04;101274.50;;;13.42;100.00
32324;BME280;25666;44.350;9.222;2023-04-21T03:15:30;101267.09;;;13.34;100.00
32324;BME280;25666;44.350;9.222;2023-04-21T03:17:56;101274.19;;;13.31;100.00
32324;BME280;25666;44.350;9.222;2023-04-21T03:20:23;101272.22;;;13.32;100.00
32324;BME280;25666;44.350;9.222;2023-04-21T03:22:49;101277.00;;;13.31;100.00
32324;BME280;25666;44.350;9.222;2023-04-21T03:25:17;101274.34;;;13.23;100.00
32324;BME280;25666;44.350;9.222;2023-04-21T03:27:42;101283.22;;;13.13;100.00
32324;BME280;25666;44.350;9.222;2023-04-21T03:30:08;101280.81;;;13.11;100.00
32324;BME280;25666;44.350;9.222;2023-04-21T03:32:34;101283.22;;;13.25;100.00
32324;BME280;25666;44.350;9.222;2023-04-21T03:35:00;101276.22;;;13.31;100.00
32324;BME280;25666;44.350;9.222;2023-04-21T03:37:25;101275.50;;;13.34;100.00
32324;BME280;25666;44.350;9.222;2023-04-21T03:39:51;101278.69;;;13.20;100.00
32324;BME280;25666;44.350;9.222;2023-04-21T03:42:18;101278.72;;;13.08;100.00
32324;BME280;25666;44.350;9.222;2023-04-21T03:44:43;101278.47;;;13.01;100.00
32324;BME280;25666;44.350;9.222;2023-04-21T03:47:09;101285.44;;;13.07;100.00
32324;BME280;25666;44.350;9.222;2023-04-21T03:49:34;101292.34;;;13.10;100.00
32324;BME280;25666;44.350;9.222;2023-04-21T03:52:00;101290.84;;;13.12;100.00
32324;BME280;25666;44.350;9.222;2023-04-21T03:54:25;101298.50;;;13.15;100.00
32324;BME280;25666;44.350;9.222;2023-04-21T03:56:51;101296.31;;;13.09;100.00
32324;BME280;25666;44.350;9.222;2023-04-21T03:59:16;101291.19;;;13.11;100.00
32324;BME280;25666;44.350;9.222;2023-04-21T04:01:42;101287.31;;;13.15;100.00
32324;BME280;25666;44.350;9.222;2023-04-21T04:04:07;101289.91;;;13.08;100.00
32324;BME280;25666;44.350;9.222;2023-04-21T04:06:33;101291.28;;;13.14;100.00
32324;BME280;25666;44.350;9.222;2023-04-21T04:09:00;101296.06;;;13.14;100.00
32324;BME280;25666;44.350;9.222;2023-04-21T04:11:29;101301.28;;;13.03;100.00
32324;BME280;25666;44.350;9.222;2023-04-21T04:13:54;101304.56;;;13.05;100.00
32324;BME280;25666;44.350;9.222;2023-04-21T04:16:20;101303.63;;;13.01;100.00
32324;BME280;25666;44.350;9.222;2023-04-21T04:18:46;101306.53;;;13.05;100.00
32324;BME280;25666;44.350;9.222;2023-04-21T04:21:11;101309.34;;;12.93;100.00
32324;BME280;25666;44.350;9.222;2023-04-21T04:23:36;101309.59;;;12.87;100.00
32324;BME280;25666;44.350;9.222;2023-04-21T04:26:02;101307.59;;;12.88;100.00
32324;BME280;25666;44.350;9.222;2023-04-21T04:28:30;101311.34;;;12.92;100.00
32324;BME280;25666;44.350;9.222;2023-04-21T04:30:55;101315.19;;;13.00;100.00
32324;BME280;25666;44.350;9.222;2023-04-21T04:33:21;101315.97;;;13.00;100.00
32324;BME280;25666;44.350;9.222;2023-04-21T04:35:46;101311.78;;;12.94;100.00
32324;BME280;25666;44.350;9.222;2023-04-21T04:38:12;101322.84;;;12.90;100.00
32324;BME280;25666;44.350;9.222;2023-04-21T04:40:39;101316.91;;;12.92;100.00
32324;BME280;25666;44.350;9.222;2023-04-21T04:43:06;101323.91;;;12.86;100.00
32324;BME280;25666;44.350;9.222;2023-04-21T04:45:33;101324.84;;;12.90;100.00
32324;BME280;25666;44.350;9.222;2023-04-21T04:47:58;101319.59;;;12.88;100.00
32324;BME280;25666;44.350;9.222;2023-04-21T04:50:24;101323.78;;;12.95;100.00
32324;BME280;25666;44.350;9.222;2023-04-21T04:52:49;101329.63;;;12.89;100.00
32324;BME280;25666;44.350;9.222;2023-04-21T04:55:15;101331.25;;;12.78;100.00
32324;BME280;25666;44.350;9.222;2023-04-21T04:57:40;101338.94;;;12.69;100.00
32324;BME280;25666;44.350;9.222;2023-04-21T05:00:07;101343.72;;;12.69;100.00
32324;BME280;25666;44.350;9.222;2023-04-21T05:02:36;101339.31;;;12.68;100.00
32324;BME280;25666;44.350;9.222;2023-04-21T05:05:02;101337.41;;;12.72;100.00
32324;BME280;25666;44.350;9.222;2023-04-21T05:07:28;101339.06;;;12.73;100.00
32324;BME280;25666;44.350;9.222;2023-04-21T05:09:53;101345.81;;;12.72;100.00
32324;BME280;25666;44.350;9.222;2023-04-21T05:12:19;101344.78;;;12.64;100.00
32324;BME280;25666;44.350;9.222;2023-04-21T05:14:44;101349.91;;;12.74;100.00
32324;BME280;25666;44.350;9.222;2023-04-21T05:17:10;101346.50;;;12.69;100.00
32324;BME280;25666;44.350;9.222;2023-04-21T05:19:36;101347.00;;;12.71;100.00
32324;BME280;25666;44.350;9.222;2023-04-21T05:22:02;101348.84;;;12.67;100.00
32324;BME280;25666;44.350;9.222;2023-04-21T05:24:33;101349.41;;;12.72;100.00
32324;BME280;25666;44.350;9.222;2023-04-21T05:26:59;101347.69;;;12.68;100.00
32324;BME280;25666;44.350;9.222;2023-04-21T05:29:25;101352.00;;;12.77;100.00
32324;BME280;25666;44.350;9.222;2023-04-21T05:31:51;101351.06;;;12.73;100.00
32324;BME280;25666;44.350;9.222;2023-04-21T05:34:16;101353.28;;;12.68;100.00
32324;BME280;25666;44.350;9.222;2023-04-21T05:36:42;101354.75;;;13.02;100.00
32324;BME280;25666;44.350;9.222;2023-04-21T05:39:08;101356.66;;;13.93;100.00
32324;BME280;25666;44.350;9.222;2023-04-21T05:41:33;101329.84;;;17.81;100.00
32324;BME280;25666;44.350;9.222;2023-04-21T05:43:59;101336.00;;;18.78;100.00
32324;BME280;25666;44.350;9.222;2023-04-21T05:46:24;101333.44;;;19.17;100.00
32324;BME280;25666;44.350;9.222;2023-04-21T05:48:50;101328.94;;;19.95;100.00
32324;BME280;25666;44.350;9.222;2023-04-21T05:51:15;101334.06;;;21.63;100.00
32324;BME280;25666;44.350;9.222;2023-04-21T05:53:42;101332.28;;;23.41;100.00
32324;BME280;25666;44.350;9.222;2023-04-21T05:56:09;101339.38;;;24.20;100.00
32324;BME280;25666;44.350;9.222;2023-04-21T05:58:35;101330.06;;;24.93;100.00
32324;BME280;25666;44.350;9.222;2023-04-21T06:01:00;101329.94;;;26.18;90.69
32324;BME280;25666;44.350;9.222;2023-04-21T06:03:26;101324.94;;;26.38;85.29
32324;BME280;25666;44.350;9.222;2023-04-21T06:05:55;101329.25;;;27.24;76.20
32324;BME280;25666;44.350;9.222;2023-04-21T06:08:21;101333.56;;;21.93;100.00
32324;BME280;25666;44.350;9.222;2023-04-21T06:10:47;101338.06;;;19.50;100.00
32324;BME280;25666;44.350;9.222;2023-04-21T06:13:12;101341.59;;;18.71;100.00
32324;BME280;25666;44.350;9.222;2023-04-21T06:15:38;101336.56;;;17.73;100.00
32324;BME280;25666;44.350;9.222;2023-04-21T06:18:03;101334.19;;;17.45;100.00
32324;BME280;25666;44.350;9.222;2023-04-21T06:20:29;101336.84;;;17.05;100.00
32324;BME280;25666;44.350;9.222;2023-04-21T06:22:54;101332.28;;;16.93;100.00
32324;BME280;25666;44.350;9.222;2023-04-21T06:25:20;101344.44;;;16.52;100.00
32324;BME280;25666;44.350;9.222;2023-04-21T06:27:45;101342.31;;;16.23;100.00
32324;BME280;25666;44.350;9.222;2023-04-21T06:30:12;101345.69;;;16.77;100.00
32324;BME280;25666;44.350;9.222;2023-04-21T06:32:38;101344.09;;;17.99;100.00
32324;BME280;25666;44.350;9.222;2023-04-21T06:35:03;101338.91;;;23.65;100.00
32324;BME280;25666;44.350;9.222;2023-04-21T06:37:29;101337.59;;;26.21;93.20
32324;BME280;25666;44.350;9.222;2023-04-21T06:39:55;101340.34;;;27.50;70.39
32324;BME280;25666;44.350;9.222;2023-04-21T06:42:20;101332.56;;;26.93;71.62
32324;BME280;25666;44.350;9.222;2023-04-21T06:44:46;101335.59;;;27.31;71.13
32324;BME280;25666;44.350;9.222;2023-04-21T06:47:11;101336.03;;;26.85;70.40
32324;BME280;25666;44.350;9.222;2023-04-21T06:49:37;101332.97;;;26.27;72.57
32324;BME280;25666;44.350;9.222;2023-04-21T06:52:03;101341.03;;;26.81;68.34
32324;BME280;25666;44.350;9.222;2023-04-21T06:54:29;101330.41;;;27.96;63.10
32324;BME280;25666;44.350;9.222;2023-04-21T06:56:54;101324.34;;;28.57;57.04
32324;BME280;25666;44.350;9.222;2023-04-21T06:59:21;101315.84;;;30.89;47.15
32324;BME280;25666;44.350;9.222;2023-04-21T07:01:47;101311.75;;;31.17;43.00
32324;BME280;25666;44.350;9.222;2023-04-21T07:04:19;101317.22;;;32.12;40.91
32324;BME280;25666;44.350;9.222;2023-04-21T07:06:45;101309.97;;;33.06;38.14
32324;BME280;25666;44.350;9.222;2023-04-21T07:09:11;101297.88;;;34.13;34.83
32324;BME280;25666;44.350;9.222;2023-04-21T07:11:36;101305.47;;;28.35;45.40
32324;BME280;25666;44.350;9.222;2023-04-21T07:14:02;101308.63;;;25.67;63.69
32324;BME280;25666;44.350;9.222;2023-04-21T07:16:29;101304.41;;;24.70;79.73
32324;BME280;25666;44.350;9.222;2023-04-21T07:18:54;101311.81;;;23.19;100.00
32324;BME280;25666;44.350;9.222;2023-04-21T07:21:20;101308.97;;;25.10;98.59
32324;BME280;25666;44.350;9.222;2023-04-21T07:23:46;101310.38;;;30.24;51.20
32324;BME280;25666;44.350;9.222;2023-04-21T07:26:11;101314.50;;;32.08;43.17
32324;BME280;25666;44.350;9.222;2023-04-21T07:28:37;101323.44;;;32.19;41.69
32324;BME280;25666;44.350;9.222;2023-04-21T07:31:05;101317.69;;;31.23;44.05
32324;BME280;25666;44.350;9.222;2023-04-21T07:33:31;101326.44;;;32.67;40.27
32324;BME280;25666;44.350;9.222;2023-04-21T07:35:56;101329.47;;;29.22;48.20
32324;BME280;25666;44.350;9.222;2023-04-21T07:38:22;101326.59;;;30.09;49.19
32324;BME280;25666;44.350;9.222;2023-04-21T07:40:47;101327.06;;;30.07;48.62
32324;BME280;25666;44.350;9.222;2023-04-21T07:43:12;101328.09;;;28.04;58.79
32324;BME280;25666;44.350;9.222;2023-04-21T07:45:38;101332.41;;;26.16;79.97
32324;BME280;25666;44.350;9.222;2023-04-21T07:48:03;101341.59;;;23.45;100.00
32324;BME280;25666;44.350;9.222;2023-04-21T07:50:32;101345.72;;;21.86;100.00
32324;BME280;25666;44.350;9.222;2023-04-21T07:52:57;101352.44;;;20.77;100.00
32324;BME280;25666;44.350;9.222;2023-04-21T07:55:23;101350.84;;;20.48;100.00
32324;BME280;25666;44.350;9.222;2023-04-21T07:57:48;101356.25;;;19.56;100.00
32324;BME280;25666;44.350;9.222;2023-04-21T08:00:14;101362.69;;;18.91;100.00
32324;BME280;25666;44.350;9.222;2023-04-21T08:02:40;101365.44;;;18.81;100.00
32324;BME280;25666;44.350;9.222;2023-04-21T08:05:06;101359.00;;;18.84;100.00
32324;BME280;25666;44.350;9.222;2023-04-21T08:07:32;101356.06;;;18.66;100.00
32324;BME280;25666;44.350;9.222;2023-04-21T08:09:57;101367.91;;;18.42;100.00
32324;BME280;25666;44.350;9.222;2023-04-21T08:12:25;101361.41;;;17.97;100.00
32324;BME280;25666;44.350;9.222;2023-04-21T08:14:50;101356.59;;;17.98;100.00
32324;BME280;25666;44.350;9.222;2023-04-21T08:17:16;101360.53;;;17.93;100.00
32324;BME280;25666;44.350;9.222;2023-04-21T08:19:41;101366.00;;;17.76;100.00
32324;BME280;25666;44.350;9.222;2023-04-21T08:22:08;101366.22;;;17.97;100.00
32324;BME280;25666;44.350;9.222;2023-04-21T08:24:33;101367.53;;;18.06;100.00
32324;BME280;25666;44.350;9.222;2023-04-21T08:26:59;101365.63;;;17.81;100.00
32324;BME280;25666;44.350;9.222;2023-04-21T08:29:27;101370.84;;;17.79;100.00
32324;BME280;25666;44.350;9.222;2023-04-21T08:31:52;101370.59;;;17.61;100.00
32324;BME280;25666;44.350;9.222;2023-04-21T08:34:17;101378.38;;;17.41;100.00
32324;BME280;25666;44.350;9.222;2023-04-21T08:36:44;101377.50;;;17.63;100.00
32324;BME280;25666;44.350;9.222;2023-04-21T08:39:11;101373.97;;;17.14;100.00
32324;BME280;25666;44.350;9.222;2023-04-21T08:41:40;101369.38;;;17.02;100.00
32324;BME280;25666;44.350;9.222;2023-04-21T08:44:07;101373.25;;;17.21;100.00
32324;BME280;25666;44.350;9.222;2023-04-21T08:46:34;101370.28;;;16.84;100.00
32324;BME280;25666;44.350;9.222;2023-04-21T08:49:01;101374.06;;;17.21;100.00
32324;BME280;25666;44.350;9.222;2023-04-21T08:51:27;101370.69;;;17.38;100.00
32324;BME280;25666;44.350;9.222;2023-04-21T08:53:56;101375.50;;;17.38;100.00
32324;BME280;25666;44.350;9.222;2023-04-21T08:56:25;101374.81;;;17.48;100.00
32324;BME280;25666;44.350;9.222;2023-04-21T08:58:50;101378.22;;;17.57;100.00
32324;BME280;25666;44.350;9.222;2023-04-21T09:01:16;101377.31;;;17.53;100.00
32324;BME280;25666;44.350;9.222;2023-04-21T09:03:41;101374.09;;;17.54;100.00
32324;BME280;25666;44.350;9.222;2023-04-21T09:06:08;101364.06;;;17.53;100.00
32324;BME280;25666;44.350;9.222;2023-04-21T09:08:37;101365.19;;;17.49;100.00
32324;BME280;25666;44.350;9.222;2023-04-21T09:11:05;101359.41;;;17.64;100.00
32324;BME280;25666;44.350;9.222;2023-04-21T09:13:35;101375.25;;;17.20;100.00
32324;BME280;25666;44.350;9.222;2023-04-21T09:16:03;101363.69;;;17.25;100.00
32324;BME280;25666;44.350;9.222;2023-04-21T09:18:30;101370.78;;;16.89;100.00
32324;BME280;25666;44.350;9.222;2023-04-21T09:23:42;101365.88;;;17.39;100.00
32324;BME280;25666;44.350;9.222;2023-04-21T09:26:09;101373.69;;;17.52;100.00
32324;BME280;25666;44.350;9.222;2023-04-21T09:28:34;101371.06;;;17.63;100.00
32324;BME280;25666;44.350;9.222;2023-04-21T09:31:00;101377.91;;;17.65;100.00
32324;BME280;25666;44.350;9.222;2023-04-21T09:33:25;101373.69;;;17.52;100.00
32324;BME280;25666;44.350;9.222;2023-04-21T09:35:51;101379.56;;;17.40;100.00
32324;BME280;25666;44.350;9.222;2023-04-21T09:38:20;101371.22;;;17.47;100.00
32324;BME280;25666;44.350;9.222;2023-04-21T09:40:56;101373.47;;;17.64;100.00
32324;BME280;25666;44.350;9.222;2023-04-21T09:43:22;101375.53;;;17.67;100.00
32324;BME280;25666;44.350;9.222;2023-04-21T09:45:48;101363.44;;;17.67;100.00
32324;BME280;25666;44.350;9.222;2023-04-21T09:48:16;101364.72;;;17.73;100.00
32324;BME280;25666;44.350;9.222;2023-04-21T09:50:42;101370.72;;;17.42;100.00
32324;BME280;25666;44.350;9.222;2023-04-21T09:53:13;101371.28;;;17.51;100.00
32324;BME280;25666;44.350;9.222;2023-04-21T09:55:40;101371.13;;;17.70;100.00
32324;BME280;25666;44.350;9.222;2023-04-21T09:58:06;101379.25;;;17.75;100.00
32324;BME280;25666;44.350;9.222;2023-04-21T10:00:34;101371.53;;;17.69;100.00
32324;BME280;25666;44.350;9.222;2023-04-21T10:03:04;101369.03;;;17.34;100.00
32324;BME280;25666;44.350;9.222;2023-04-21T10:05:35;101364.97;;;17.31;100.00
32324;BME280;25666;44.350;9.222;2023-04-21T10:08:00;101374.75;;;17.41;100.00
32324;BME280;25666;44.350;9.222;2023-04-21T10:10:28;101369.13;;;17.41;100.00
32324;BME280;25666;44.350;9.222;2023-04-21T10:12:56;101371.47;;;17.35;100.00
32324;BME280;25666;44.350;9.222;2023-04-21T10:15:33;101378.38;;;17.41;100.00
32324;BME280;25666;44.350;9.222;2023-04-21T10:23:28;101381.41;;;17.55;100.00
32324;BME280;25666;44.350;9.222;2023-04-21T10:28:44;101368.66;;;17.65;100.00
32324;BME280;25666;44.350;9.222;2023-04-21T10:31:34;101363.31;;;17.90;100.00
32324;BME280;25666;44.350;9.222;2023-04-21T10:36:42;101364.91;;;17.87;100.00
32324;BME280;25666;44.350;9.222;2023-04-21T10:39:08;101364.22;;;17.97;100.00
32324;BME280;25666;44.350;9.222;2023-04-21T10:41:37;101368.41;;;17.77;100.00
32324;BME280;25666;44.350;9.222;2023-04-21T10:46:36;101358.88;;;17.89;100.00
32324;BME280;25666;44.350;9.222;2023-04-21T10:49:09;101363.28;;;17.86;100.00
32324;BME280;25666;44.350;9.222;2023-04-21T10:57:01;101361.88;;;18.03;100.00
32324;BME280;25666;44.350;9.222;2023-04-21T10:59:30;101364.66;;;18.40;100.00
32324;BME280;25666;44.350;9.222;2023-04-21T11:01:55;101368.00;;;18.12;100.00
32324;BME280;25666;44.350;9.222;2023-04-21T11:04:21;101366.25;;;18.37;100.00
32324;BME280;25666;44.350;9.222;2023-04-21T11:09:32;101362.84;;;18.21;100.00
32324;BME280;25666;44.350;9.222;2023-04-21T11:11:59;101369.47;;;18.39;100.00
32324;BME280;25666;44.350;9.222;2023-04-21T11:14:28;101363.59;;;18.55;100.00
32324;BME280;25666;44.350;9.222;2023-04-21T11:16:54;101372.09;;;18.58;100.00
32324;BME280;25666;44.350;9.222;2023-04-21T11:19:19;101370.69;;;18.82;100.00
32324;BME280;25666;44.350;9.222;2023-04-21T11:21:48;101372.34;;;18.90;100.00
32324;BME280;25666;44.350;9.222;2023-04-21T11:24:14;101369.94;;;18.89;100.00
32324;BME280;25666;44.350;9.222;2023-04-21T11:26:40;101364.50;;;19.17;100.00
32324;BME280;25666;44.350;9.222;2023-04-21T11:29:08;101366.78;;;19.01;100.00
32324;BME280;25666;44.350;9.222;2023-04-21T11:31:35;101371.94;;;18.88;100.00
32324;BME280;25666;44.350;9.222;2023-04-21T11:34:01;101365.06;;;18.82;100.00
32324;BME280;25666;44.350;9.222;2023-04-21T11:36:38;101368.16;;;19.28;100.00
32324;BME280;25666;44.350;9.222;2023-04-21T11:39:09;101365.72;;;19.19;100.00
32324;BME280;25666;44.350;9.222;2023-04-21T11:41:43;101361.78;;;19.38;100.00
32324;BME280;25666;44.350;9.222;2023-04-21T11:44:10;101371.03;;;19.35;100.00
32324;BME280;25666;44.350;9.222;2023-04-21T11:46:36;101371.56;;;19.55;100.00
32324;BME280;25666;44.350;9.222;2023-04-21T11:49:10;101373.28;;;19.81;100.00
32324;BME280;25666;44.350;9.222;2023-04-21T11:51:38;101378.34;;;19.40;100.00
32324;BME280;25666;44.350;9.222;2023-04-21T11:54:05;101367.47;;;19.42;100.00
32324;BME280;25666;44.350;9.222;2023-04-21T11:56:49;101372.22;;;19.34;100.00
32324;BME280;25666;44.350;9.222;2023-04-21T11:59:17;101374.97;;;19.23;100.00
32324;BME280;25666;44.350;9.222;2023-04-21T12:01:48;101369.13;;;19.50;100.00
32324;BME280;25666;44.350;9.222;2023-04-21T12:04:18;101368.41;;;19.70;100.00
32324;BME280;25666;44.350;9.222;2023-04-21T12:06:44;101367.81;;;19.37;100.00
32324;BME280;25666;44.350;9.222;2023-04-21T12:09:18;101363.16;;;19.69;100.00
32324;BME280;25666;44.350;9.222;2023-04-21T12:11:49;101359.13;;;19.77;100.00
32324;BME280;25666;44.350;9.222;2023-04-21T12:14:16;101360.03;;;19.95;100.00
32324;BME280;25666;44.350;9.222;2023-04-21T12:16:46;101349.53;;;19.92;100.00
32324;BME280;25666;44.350;9.222;2023-04-21T12:19:21;101359.66;;;20.04;100.00
32324;BME280;25666;44.350;9.222;2023-04-21T12:21:52;101352.00;;;20.18;100.00
32324;BME280;25666;44.350;9.222;2023-04-21T12:24:17;101357.28;;;20.30;100.00
32324;BME280;25666;44.350;9.222;2023-04-21T12:26:43;101354.47;;;20.38;100.00
32324;BME280;25666;44.350;9.222;2023-04-21T12:29:08;101355.16;;;19.85;100.00
32324;BME280;25666;44.350;9.222;2023-04-21T12:31:34;101350.78;;;20.16;100.00
32324;BME280;25666;44.350;9.222;2023-04-21T12:33:59;101352.38;;;20.06;100.00
32324;BME280;25666;44.350;9.222;2023-04-21T12:36:25;101354.41;;;20.09;100.00
32324;BME280;25666;44.350;9.222;2023-04-21T12:38:52;101358.34;;;19.84;100.00
32324;BME280;25666;44.350;9.222;2023-04-21T12:41:17;101356.75;;;19.90;100.00
32324;BME280;25666;44.350;9.222;2023-04-21T12:43:43;101366.47;;;19.96;100.00
32324;BME280;25666;44.350;9.222;2023-04-21T12:46:08;101362.78;;;19.81;100.00
32324;BME280;25666;44.350;9.222;2023-04-21T12:48:34;101364.44;;;19.89;100.00
32324;BME280;25666;44.350;9.222;2023-04-21T12:50:59;101355.53;;;19.80;100.00
32324;BME280;25666;44.350;9.222;2023-04-21T12:53:25;101352.72;;;19.84;100.00
32324;BME280;25666;44.350;9.222;2023-04-21T12:55:50;101353.56;;;19.91;100.00
32324;BME280;25666;44.350;9.222;2023-04-21T12:58:16;101352.75;;;19.91;100.00
32324;BME280;25666;44.350;9.222;2023-04-21T13:00:41;101352.72;;;19.87;100.00